Time;durP1;ratioP1;P1;durP2;ratioP2;P2;SDS_P1;SDS_P2;PMS_P1;PMS_P2;Temp;Humidity;BMP_temperature;BMP_pressure;BME280_temperature;BME280_humidity;BME280_pressure;Samples;Min_cycle;Max_cycle;Signal;HPM_P1;HPM_P2
2022/12/27 00:00:55;;;;;;;23.97;10.57;;;;;;;7.31;67.39;99868.75;6036835;23;20795;-85
2022/12/27 00:03:24;;;;;;;32.60;14.33;;;;;;;7.19;67.24;99877.75;6037614;23;20150;-85
2022/12/27 00:05:52;;;;;;;38.27;15.87;;;;;;;7.25;66.60;99879.34;6012675;23;20517;-85
2022/12/27 00:08:18;;;;;;;27.87;13.47;;;;;;;7.23;65.77;99881.97;6037831;23;20602;-85
2022/12/27 00:10:43;;;;;;;19.93;8.50;;;;;;;7.17;66.43;99876.06;6013048;23;20253;-85
2022/12/27 00:13:09;;;;;;;17.77;7.37;;;;;;;7.06;66.99;99875.50;6037871;23;20773;-85
2022/12/27 00:15:37;;;;;;;33.77;13.07;;;;;;;7.00;65.92;99873.03;6013926;23;20197;-85
2022/12/27 00:18:03;;;;;;;23.60;10.90;;;;;;;6.98;66.22;99873.09;6014892;23;20165;-85
2022/12/27 00:20:29;;;;;;;28.67;12.00;;;;;;;6.99;65.88;99879.19;6039808;23;20237;-85
2022/12/27 00:22:54;;;;;;;29.13;12.20;;;;;;;6.95;65.99;99874.91;6015357;23;20625;-85
2022/12/27 00:25:22;;;;;;;29.27;13.43;;;;;;;6.84;65.52;99875.19;6015166;23;20154;-86
2022/12/27 00:27:51;;;;;;;33.43;12.50;;;;;;;6.78;65.33;99877.97;6040382;23;20153;-85
2022/12/27 00:30:16;;;;;;;20.83;10.97;;;;;;;6.83;65.54;99873.50;6040201;23;20221;-85
2022/12/27 00:32:42;;;;;;;26.97;10.47;;;;;;;6.89;65.38;99864.69;6039615;23;20178;-85
2022/12/27 00:35:10;;;;;;;17.23;8.03;;;;;;;7.00;65.26;99870.44;6039698;23;20154;-86
2022/12/27 00:37:38;;;;;;;13.33;6.93;;;;;;;6.73;66.10;99865.03;6039536;23;20162;-85
2022/12/27 00:40:10;;;;;;;12.73;6.53;;;;;;;6.66;68.26;99871.31;6014804;23;20169;-85
2022/12/27 00:42:38;;;;;;;12.70;5.53;;;;;;;6.52;70.45;99864.75;6038713;23;20182;-85
2022/12/27 00:45:11;;;;;;;10.33;5.00;;;;;;;6.54;71.08;99863.81;6014696;23;20221;-85
2022/12/27 00:47:39;;;;;;;10.17;4.53;;;;;;;6.76;70.95;99851.94;6014575;23;20168;-85
2022/12/27 00:50:08;;;;;;;8.37;3.83;;;;;;;6.81;71.30;99846.63;6039821;23;20162;-85
2022/12/27 00:52:33;;;;;;;10.83;3.87;;;;;;;6.72;71.84;99841.66;6014656;23;20185;-85
2022/12/27 00:54:59;;;;;;;9.77;4.60;;;;;;;6.62;72.75;99841.03;6038550;23;20614;-85
2022/12/27 00:57:24;;;;;;;9.77;3.83;;;;;;;6.75;72.79;99850.25;6014591;23;20158;-85
2022/12/27 00:59:49;;;;;;;8.30;4.10;;;;;;;6.85;72.19;99848.25;6014598;23;20165;-85
2022/12/27 01:02:15;;;;;;;18.73;6.57;;;;;;;6.92;71.52;99849.78;6014820;23;20167;-85
2022/12/27 01:04:40;;;;;;;13.47;5.27;;;;;;;6.99;71.19;99853.97;6039734;23;20507;-85
2022/12/27 01:07:15;;;;;;;12.60;4.93;;;;;;;6.98;70.28;99848.78;6039331;23;20244;-85
2022/12/27 01:09:40;;;;;;;13.60;6.27;;;;;;;7.01;70.27;99851.31;6039402;23;20255;-85
2022/12/27 01:12:05;;;;;;;13.63;7.53;;;;;;;7.05;69.59;99850.34;6039544;23;20209;-85
2022/12/27 01:14:31;;;;;;;12.70;6.10;;;;;;;6.95;68.46;99846.25;6014402;23;20157;-85
2022/12/27 01:16:56;;;;;;;11.47;4.87;;;;;;;6.77;68.77;99848.47;6039856;23;20150;-84
2022/12/27 01:19:25;;;;;;;11.20;4.23;;;;;;;6.64;69.22;99844.47;6039285;23;20217;-84
2022/12/27 01:21:50;;;;;;;12.30;5.47;;;;;;;6.47;69.89;99845.78;6039334;23;20157;-84
2022/12/27 01:24:15;;;;;;;14.03;3.83;;;;;;;6.58;71.25;99838.53;6014890;23;20161;-85
2022/12/27 01:26:43;;;;;;;9.70;5.23;;;;;;;6.67;71.04;99833.97;6039333;23;20176;-84
2022/12/27 01:29:11;;;;;;;10.83;4.63;;;;;;;6.66;71.62;99840.06;6014512;23;20224;-84
2022/12/27 01:31:37;;;;;;;9.17;4.60;;;;;;;6.75;71.83;99832.03;6014621;23;20182;-84
2022/12/27 01:34:03;;;;;;;10.30;4.13;;;;;;;6.82;71.57;99833.56;6039615;23;20221;-84
2022/12/27 01:36:30;;;;;;;13.03;5.17;;;;;;;6.81;71.37;99833.63;6014907;23;20169;-84
2022/12/27 01:38:56;;;;;;;15.27;6.10;;;;;;;6.71;71.01;99835.59;6015239;23;20158;-84
2022/12/27 01:47:13;;;;;;;15.67;6.30;;;;;;;6.61;70.13;99821.09;6041639;23;20228;-84
2022/12/27 01:49:46;;;;;;;16.43;6.53;;;;;;;6.65;69.84;99824.47;6016392;23;20161;-85
2022/12/27 01:52:15;;;;;;;21.83;6.73;;;;;;;6.52;69.29;99823.94;6039950;23;20630;-85
2022/12/27 01:54:41;;;;;;;12.53;6.27;;;;;;;6.48;69.35;99824.91;6041599;23;20158;-85
2022/12/27 01:57:08;;;;;;;17.97;7.17;;;;;;;6.50;69.14;99815.28;6016432;23;20161;-84
2022/12/27 01:59:34;;;;;;;16.83;7.87;;;;;;;6.49;68.92;99813.59;6016562;23;20257;-84
2022/12/27 02:02:00;;;;;;;19.00;8.17;;;;;;;6.49;68.40;99820.56;6041377;23;20196;-85
2022/12/27 02:04:30;;;;;;;18.10;6.83;;;;;;;6.35;67.60;99814.81;6041362;23;20570;-84
2022/12/27 02:06:59;;;;;;;16.00;6.60;;;;;;;6.32;67.34;99815.75;6016538;23;20188;-85
2022/12/27 02:09:33;;;;;;;16.80;8.27;;;;;;;6.28;67.43;99814.13;6040817;23;20289;-84
2022/12/27 02:12:00;;;;;;;21.17;8.73;;;;;;;6.20;67.17;99821.25;6041145;23;20248;-84
2022/12/27 02:14:31;;;;;;;18.17;7.03;;;;;;;6.18;67.05;99810.88;6041185;23;20149;-84
2022/12/27 02:17:00;;;;;;;17.97;6.97;;;;;;;6.13;67.20;99812.72;6041287;23;20142;-84
2022/12/27 02:19:40;;;;;;;12.57;5.97;;;;;;;6.10;67.82;99814.56;6016245;23;20180;-84
2022/12/27 02:22:14;;;;;;;17.00;6.40;;;;;;;6.07;67.72;99812.03;6041770;23;20138;-84
2022/12/27 02:25:05;;;;;;;13.20;6.73;;;;;;;5.97;68.43;99807.94;6015795;23;20160;-84
2022/12/27 02:27:40;;;;;;;12.27;6.23;;;;;;;6.00;68.07;99813.09;6016112;23;20250;-84
2022/12/27 02:30:07;;;;;;;13.23;6.20;;;;;;;6.08;68.09;99811.13;6041053;23;20228;-84
2022/12/27 02:32:37;;;;;;;13.97;5.90;;;;;;;6.07;68.37;99801.63;6041046;23;20182;-84
2022/12/27 02:35:06;;;;;;;12.40;5.93;;;;;;;6.13;68.14;99804.94;6041159;23;20150;-84
2022/12/27 02:37:36;;;;;;;12.93;5.63;;;;;;;6.07;67.90;99797.28;6040716;23;20566;-84
2022/12/27 02:54:23;;;;;;;13.70;5.90;;;;;;;5.90;69.59;99795.94;6040747;23;20638;-84
2022/12/27 02:57:07;;;;;;;14.80;6.33;;;;;;;5.89;70.16;99795.13;6040656;23;20188;-85
2022/12/27 03:03:52;;;;;;;15.33;5.07;;;;;;;5.57;72.09;99807.94;6040914;23;20213;-85
2022/12/27 03:09:08;;;;;;;10.67;5.77;;;;;;;5.78;72.61;99806.63;6040927;23;20593;-85
2022/12/27 03:17:36;;;;;;;12.67;4.90;;;;;;;6.18;71.95;99797.84;6040877;23;20510;-84
2022/12/27 03:25:44;;;;;;;21.93;7.07;;;;;;;6.14;70.29;99775.41;6041292;23;20153;-85
2022/12/27 03:34:03;;;;;;;17.93;6.30;;;;;;;6.13;69.71;99770.25;6041203;23;20149;-85
2022/12/27 03:39:33;;;;;;;11.20;5.53;;;;;;;6.18;69.07;99776.22;6040558;23;20212;-85
2022/12/27 03:44:55;;;;;;;13.77;5.63;;;;;;;6.02;68.79;99775.72;6040595;23;20319;-85
2022/12/27 03:47:46;;;;;;;12.07;5.67;;;;;;;5.96;68.87;99775.00;6039976;23;20158;-85
2022/12/27 03:50:24;;;;;;;13.20;5.77;;;;;;;5.91;68.91;99776.84;6040556;23;20496;-85
2022/12/27 03:53:02;;;;;;;11.47;5.47;;;;;;;5.94;69.49;99777.66;6015043;23;20528;-85
2022/12/27 03:55:28;;;;;;;17.47;6.60;;;;;;;5.98;69.19;99786.22;6015187;23;20154;-85
2022/12/27 03:57:54;;;;;;;12.43;4.83;;;;;;;5.97;69.06;99785.38;6040368;23;20180;-85
2022/12/27 04:00:19;;;;;;;11.23;5.63;;;;;;;5.87;69.05;99786.47;6014991;23;20162;-85
2022/12/27 04:02:45;;;;;;;15.20;6.70;;;;;;;5.81;69.30;99789.19;6040214;23;20154;-85
2022/12/27 04:05:10;;;;;;;15.60;5.73;;;;;;;5.84;69.11;99785.69;6040245;23;20161;-85
2022/12/27 04:07:36;;;;;;;12.20;5.80;;;;;;;5.74;70.05;99787.59;6015290;23;20154;-85
2022/12/27 04:34:38;;;;;;;11.90;4.60;;;;;;;5.90;70.47;99796.81;6037317;23;20176;-85
2022/12/27 04:37:04;;;;;;;9.77;3.30;;;;;;;5.96;70.78;99796.69;6012658;23;20180;-85
2022/12/27 04:39:36;;;;;;;9.73;4.27;;;;;;;5.88;70.59;99784.72;6012235;23;20175;-85
2022/12/27 04:55:59;;;;;;;8.13;3.30;;;;;;;5.87;72.24;99783.03;6039759;23;20149;-85
2022/12/27 04:58:28;;;;;;;7.50;4.03;;;;;;;5.91;72.00;99787.25;6014461;23;20162;-85
2022/12/27 05:03:49;;;;;;;7.20;3.50;;;;;;;6.02;71.57;99780.94;6038317;23;20462;-85
2022/12/27 05:06:20;;;;;;;6.30;3.37;;;;;;;6.07;70.46;99783.41;6039778;23;20157;-85
2022/12/27 05:14:17;;;;;;;8.03;3.47;;;;;;;5.88;70.79;99792.53;6039518;23;20216;-85
2022/12/27 05:16:43;;;;;;;7.50;3.67;;;;;;;6.00;70.97;99787.06;6014126;23;20252;-85
2022/12/27 05:19:13;;;;;;;9.70;3.10;;;;;;;6.09;70.59;99789.44;6014310;23;20158;-85
2022/12/27 05:27:12;;;;;;;8.27;3.90;;;;;;;5.83;70.50;99779.59;6039599;23;20294;-85
2022/12/27 05:29:40;;;;;;;7.67;3.63;;;;;;;5.87;71.87;99790.84;6014303;23;20582;-85
2022/12/27 05:32:11;;;;;;;5.97;3.40;;;;;;;5.97;70.80;99792.34;6014328;23;20280;-85
2022/12/27 05:34:37;;;;;;;8.77;4.00;;;;;;;5.96;70.65;99795.81;6039335;23;20164;-85
2022/12/27 05:37:02;;;;;;;11.83;3.43;;;;;;;5.90;71.37;99789.00;6039210;23;20181;-85
2022/12/27 05:39:28;;;;;;;10.40;4.20;;;;;;;5.87;70.94;99794.28;6014215;23;20181;-85
2022/12/27 05:41:53;;;;;;;9.80;4.63;;;;;;;5.89;70.26;99799.47;6014124;23;20152;-85
2022/12/27 05:44:22;;;;;;;8.83;3.30;;;;;;;5.87;70.22;99801.25;6013736;23;20476;-85
2022/12/27 05:46:47;;;;;;;8.83;3.90;;;;;;;5.91;70.41;99808.09;6038108;23;20252;-84
2022/12/27 05:49:13;;;;;;;6.63;3.63;;;;;;;5.91;69.71;99802.88;6039175;23;20219;-85
2022/12/27 05:51:38;;;;;;;10.73;5.30;;;;;;;5.87;69.72;99804.69;6015328;23;20231;-85
2022/12/27 05:54:04;;;;;;;10.43;5.90;;;;;;;5.78;69.33;99811.81;6014434;23;20188;-84
2022/12/27 05:56:29;;;;;;;11.27;6.07;;;;;;;5.80;69.66;99815.22;6039495;23;20150;-84
2022/12/27 05:58:58;;;;;;;16.23;6.90;;;;;;;5.77;69.30;99820.50;6014269;23;20165;-86
2022/12/27 06:01:29;;;;;;;17.40;8.73;;;;;;;5.72;69.22;99827.56;6038778;23;20491;-84
2022/12/27 06:03:58;;;;;;;19.00;9.40;;;;;;;5.74;68.89;99823.19;6014402;23;20171;-85
2022/12/27 06:06:26;;;;;;;16.47;8.20;;;;;;;5.73;68.94;99824.06;6014185;23;20160;-85
2022/12/27 06:08:55;;;;;;;12.63;8.30;;;;;;;5.76;68.88;99824.00;6014671;23;20168;-85
2022/12/27 06:11:20;;;;;;;14.47;8.17;;;;;;;5.74;68.80;99823.19;6038716;23;20231;-85
2022/12/27 06:13:51;;;;;;;14.77;8.27;;;;;;;5.72;68.41;99832.75;6014168;23;20172;-85
2022/12/27 06:16:20;;;;;;;19.43;8.57;;;;;;;5.79;68.23;99832.56;6014576;23;20191;-85
2022/12/27 06:18:46;;;;;;;16.87;8.47;;;;;;;5.78;67.92;99828.28;6039417;23;20170;-85
2022/12/27 06:21:17;;;;;;;14.43;8.23;;;;;;;5.88;67.86;99829.81;6015126;23;20258;-84
2022/12/27 06:23:46;;;;;;;21.10;9.07;;;;;;;5.85;68.05;99824.69;6039910;23;20235;-85
2022/12/27 06:26:38;;;;;;;17.60;8.67;;;;;;;5.85;68.02;99832.50;6015847;23;20167;-84
2022/12/27 06:29:04;;;;;;;20.13;9.50;;;;;;;5.88;68.04;99839.38;6012124;23;20517;-85
2022/12/27 06:31:32;;;;;;;18.37;9.90;;;;;;;5.88;68.43;99826.34;6015577;23;20638;-85
2022/12/27 06:33:57;;;;;;;20.97;9.70;;;;;;;5.88;68.23;99822.00;6015061;23;20182;-85
2022/12/27 06:36:26;;;;;;;20.13;9.50;;;;;;;5.98;68.68;99810.50;6015770;23;20195;-85
2022/12/27 06:38:55;;;;;;;17.93;9.57;;;;;;;6.08;68.87;99816.34;6041028;23;20167;-85
2022/12/27 06:41:21;;;;;;;32.17;12.53;;;;;;;6.55;70.41;99812.59;6041129;23;20160;-85
2022/12/27 06:43:46;;;;;;;28.00;12.23;;;;;;;7.25;70.65;99811.53;6040664;23;20563;-85
2022/12/27 06:46:15;;;;;;;14.90;8.17;;;;;;;8.09;68.40;99812.47;6016183;23;20221;-85
2022/12/27 06:48:44;;;;;;;27.43;11.07;;;;;;;8.70;63.77;99804.34;6015575;23;20217;-85
2022/12/27 06:51:11;;;;;;;28.17;13.40;;;;;;;9.18;60.52;99797.38;6016622;23;20192;-86
2022/12/27 06:53:37;;;;;;;33.03;13.67;;;;;;;9.07;58.84;99802.16;6016097;23;20213;-85
2022/12/27 06:56:11;;;;;;;25.80;13.03;;;;;;;8.93;58.93;99811.41;6016196;23;20157;-85
2022/12/27 06:58:40;;;;;;;20.83;11.07;;;;;;;8.80;58.96;99813.59;6041312;23;20212;-84
2022/12/27 07:01:32;;;;;;;27.37;11.50;;;;;;;8.77;59.10;99818.91;6040781;23;20204;-82
2022/12/27 07:04:02;;;;;;;31.77;15.37;;;;;;;8.86;59.61;99813.34;5954154;24;20164;-83
2022/12/27 07:06:30;;;;;;;33.73;15.07;;;;;;;8.97;59.61;99805.13;6032009;23;20634;-83
2022/12/27 07:08:58;;;;;;;30.80;12.93;;;;;;;9.17;60.18;99807.91;6040207;23;20293;-83
2022/12/27 07:11:30;;;;;;;27.03;12.27;;;;;;;9.27;60.11;99801.44;6041046;23;20578;-83
2022/12/27 07:13:58;;;;;;;18.77;9.07;;;;;;;9.17;60.36;99802.69;6040294;23;20154;-83
2022/12/27 07:16:26;;;;;;;15.67;6.03;;;;;;;9.07;60.94;99806.50;6040515;23;20162;-83
2022/12/27 07:18:53;;;;;;;11.73;5.90;;;;;;;9.06;61.06;99810.91;6015450;23;20531;-83
2022/12/27 07:21:27;;;;;;;13.23;7.07;;;;;;;8.99;60.94;99809.41;6015305;23;20221;-83
2022/12/27 07:23:55;;;;;;;13.77;7.10;;;;;;;8.91;60.92;99808.81;6040750;23;20460;-83
2022/12/27 07:26:27;;;;;;;20.73;9.27;;;;;;;8.84;61.42;99819.56;6040093;23;20212;-85
2022/12/27 07:29:00;;;;;;;14.00;7.07;;;;;;;8.69;61.72;99810.50;6016505;23;20584;-86
2022/12/27 07:31:28;;;;;;;16.27;8.77;;;;;;;8.44;62.67;99814.81;6016323;23;20219;-85
2022/12/27 07:33:58;;;;;;;17.20;9.23;;;;;;;8.51;63.19;99816.34;6040120;23;20566;-85
2022/12/27 07:36:28;;;;;;;16.77;8.07;;;;;;;8.60;63.44;99811.66;6016381;23;20523;-84
2022/12/27 07:38:53;;;;;;;14.57;6.27;;;;;;;8.74;63.20;99808.56;6015403;23;20595;-85
2022/12/27 07:41:19;;;;;;;12.07;5.73;;;;;;;8.79;63.57;99801.41;6015147;23;20153;-85
2022/12/27 07:43:48;;;;;;;12.10;5.87;;;;;;;8.95;63.66;99812.19;6015726;23;20251;-84
2022/12/27 07:46:19;;;;;;;15.20;6.60;;;;;;;8.98;64.01;99801.63;6016137;23;20162;-84
2022/12/27 07:48:48;;;;;;;19.23;5.63;;;;;;;9.09;64.83;99797.72;6015214;23;20246;-85
2022/12/27 07:51:16;;;;;;;47.63;10.83;;;;;;;9.11;66.55;99785.44;6040460;23;20181;-84
2022/12/27 07:53:53;;;;;;;12.10;6.77;;;;;;;9.23;66.38;99782.38;6040234;23;20507;-85
2022/12/27 07:56:29;;;;;;;13.07;6.77;;;;;;;9.32;66.90;99780.34;6016187;23;20153;-85
2022/12/27 07:59:01;;;;;;;16.43;7.43;;;;;;;9.45;67.83;99776.34;6015170;23;20157;-85
2022/12/27 08:02:02;;;;;;;16.63;7.00;;;;;;;9.53;68.83;99785.63;6015007;23;20236;-85
2022/12/27 08:04:25;;;;;;;18.70;7.53;;;;;;;9.74;68.28;99776.09;6039958;23;20158;-85
2022/12/27 08:06:51;;;;;;;17.20;9.43;;;;;;;9.72;67.77;99765.66;6015047;23;20632;-85
2022/12/27 08:09:27;;;;;;;22.90;8.03;;;;;;;9.92;67.81;99775.34;6014946;23;20248;-85
2022/12/27 08:11:52;;;;;;;24.70;8.47;;;;;;;10.09;67.63;99772.91;6039645;23;20187;-85
2022/12/27 08:14:21;;;;;;;17.93;7.40;;;;;;;10.26;67.23;99775.75;6015940;23;20240;-85
2022/12/27 08:16:46;;;;;;;15.83;8.73;;;;;;;10.46;67.03;99775.75;6039413;23;20153;-85
2022/12/27 08:19:11;;;;;;;20.67;9.20;;;;;;;10.54;67.08;99778.06;6015137;23;20645;-85
2022/12/27 08:21:38;;;;;;;19.37;8.93;;;;;;;10.67;66.90;99773.13;6015151;23;20157;-85
2022/12/27 08:24:05;;;;;;;24.13;11.30;;;;;;;10.85;66.17;99769.72;6015204;23;20468;-85
2022/12/27 08:26:32;;;;;;;24.03;12.70;;;;;;;11.06;66.02;99766.16;6040004;23;20161;-85
2022/12/27 08:28:59;;;;;;;26.60;11.63;;;;;;;11.19;65.48;99756.81;6039964;23;20192;-85
2022/12/27 08:31:25;;;;;;;22.37;9.33;;;;;;;11.23;63.64;99755.78;6039267;23;20757;-85
2022/12/27 08:33:52;;;;;;;26.00;10.70;;;;;;;11.32;63.26;99762.38;6039559;23;20153;-85
2022/12/27 08:36:18;;;;;;;25.17;11.97;;;;;;;11.36;62.52;99754.28;6040430;23;20200;-85
2022/12/27 08:38:44;;;;;;;20.27;9.30;;;;;;;11.54;62.12;99752.56;6039581;23;20185;-85
2022/12/27 08:41:10;;;;;;;15.83;7.33;;;;;;;11.70;61.76;99751.84;6038659;23;20154;-85
2022/12/27 08:43:37;;;;;;;13.93;6.70;;;;;;;11.93;60.92;99755.97;6040400;23;20662;-86
2022/12/27 08:46:05;;;;;;;15.97;6.77;;;;;;;11.93;58.96;99752.50;6039228;23;20601;-87
2022/12/27 08:48:32;;;;;;;14.33;6.50;;;;;;;12.18;59.27;99746.00;6039563;23;20174;-87
2022/12/27 08:51:07;;;;;;;14.70;7.30;;;;;;;12.38;59.67;99752.88;6039442;23;20471;-87
2022/12/27 08:53:34;;;;;;;11.13;5.50;;;;;;;12.54;58.61;99745.06;6039303;23;20135;-87
2022/12/27 08:56:01;;;;;;;16.33;7.40;;;;;;;12.72;58.10;99747.59;6039421;23;20594;-86
2022/12/27 08:58:27;;;;;;;27.80;9.77;;;;;;;12.84;57.13;99735.59;6039398;23;20161;-86
2022/12/27 09:00:53;;;;;;;14.73;7.67;;;;;;;13.01;57.14;99727.66;6040316;23;20467;-86
2022/12/27 09:03:20;;;;;;;13.50;7.40;;;;;;;13.09;56.46;99725.50;6014793;23;20161;-86
2022/12/27 09:05:48;;;;;;;16.30;7.60;;;;;;;13.16;56.24;99715.47;6038470;23;20164;-86
2022/12/27 09:08:14;;;;;;;16.60;8.30;;;;;;;13.32;56.25;99711.94;6039416;23;20153;-86
2022/12/27 09:10:40;;;;;;;22.63;10.27;;;;;;;13.44;56.28;99716.53;6014643;23;20176;-86
2022/12/27 09:13:05;;;;;;;17.10;8.10;;;;;;;13.60;55.68;99713.91;6039437;23;20186;-86
2022/12/27 09:15:30;;;;;;;18.47;9.97;;;;;;;13.88;55.27;99710.59;6038276;23;20541;-86
2022/12/27 09:18:02;;;;;;;17.90;9.07;;;;;;;14.07;54.30;99704.16;6040158;23;20276;-86
2022/12/27 09:20:27;;;;;;;18.30;8.23;;;;;;;14.18;54.07;99692.16;6039466;23;20600;-86
2022/12/27 09:22:53;;;;;;;15.13;6.53;;;;;;;14.33;54.20;99683.38;6039494;23;20154;-86
2022/12/27 09:25:21;;;;;;;16.57;7.07;;;;;;;14.28;52.77;99688.03;6039636;23;20237;-86
2022/12/27 09:27:46;;;;;;;14.63;7.17;;;;;;;14.30;53.02;99692.28;6039761;23;20225;-86
2022/12/27 09:30:12;;;;;;;19.37;9.10;;;;;;;14.41;53.18;99681.13;6039781;23;20229;-86
2022/12/27 09:32:37;;;;;;;15.07;8.07;;;;;;;14.64;51.93;99683.25;6040062;23;20178;-87
2022/12/27 09:35:03;;;;;;;21.73;8.97;;;;;;;14.81;52.62;99677.78;6039947;23;20150;-87
2022/12/27 09:37:30;;;;;;;14.73;7.57;;;;;;;14.97;52.12;99672.41;6039434;23;20529;-86
2022/12/27 09:39:56;;;;;;;17.37;8.50;;;;;;;15.10;51.77;99670.69;6039658;23;20172;-87
2022/12/27 09:42:45;;;;;;;17.53;9.27;;;;;;;15.34;50.44;99661.22;6014460;23;20597;-87
2022/12/27 09:45:17;;;;;;;14.90;8.07;;;;;;;15.52;51.08;99670.66;6014547;23;20481;-87
2022/12/27 09:47:47;;;;;;;18.57;9.43;;;;;;;15.61;50.68;99671.88;6040095;23;20142;-87
2022/12/27 09:50:23;;;;;;;17.00;8.10;;;;;;;15.81;48.23;99672.25;6014511;23;20218;-87
2022/12/27 09:52:54;;;;;;;17.10;7.80;;;;;;;16.03;48.83;99655.84;6014694;23;20184;-86
2022/12/27 09:55:36;;;;;;;15.53;7.33;;;;;;;16.05;48.99;99651.28;6039579;23;20142;-87
2022/12/27 09:58:35;;;;;;;17.10;7.53;;;;;;;16.29;48.80;99646.16;6040217;23;20164;-87
2022/12/27 10:01:01;;;;;;;12.77;6.77;;;;;;;16.45;48.48;99637.06;6041929;23;20539;-87
2022/12/27 10:03:29;;;;;;;9.47;4.70;;;;;;;16.78;48.13;99633.06;6041138;23;20153;-87
2022/12/27 10:06:07;;;;;;;11.03;5.10;;;;;;;16.97;46.95;99630.81;6039911;23;20513;-87
2022/12/27 10:08:47;;;;;;;12.30;5.30;;;;;;;17.01;47.99;99629.63;6041179;23;20618;-88
2022/12/27 10:11:37;;;;;;;9.40;5.20;;;;;;;17.22;46.98;99622.81;6040975;23;20173;-87
2022/12/27 10:14:12;;;;;;;10.20;4.60;;;;;;;17.43;46.86;99625.69;6041467;23;20570;-87
2022/12/27 10:16:58;;;;;;;9.03;4.67;;;;;;;17.45;46.97;99615.84;6041314;23;20149;-88
2022/12/27 10:19:59;;;;;;;12.90;4.90;;;;;;;17.43;47.20;99623.91;6041730;23;20142;-87
2022/12/27 10:22:32;;;;;;;10.10;5.27;;;;;;;17.58;46.86;99622.81;6015677;23;20165;-88
2022/12/27 10:25:01;;;;;;;7.37;4.20;;;;;;;17.72;46.25;99620.00;6041342;23;20217;-87
2022/12/27 10:27:28;;;;;;;9.83;5.37;;;;;;;17.82;45.10;99612.19;6040962;23;20150;-87
2022/12/27 10:29:56;;;;;;;8.70;4.30;;;;;;;18.00;45.05;99607.34;6040904;23;20496;-88
2022/12/27 10:32:22;;;;;;;12.50;5.20;;;;;;;18.05;44.64;99613.13;6040702;23;20177;-87
2022/12/27 10:35:00;;;;;;;7.03;3.80;;;;;;;18.21;44.78;99601.22;6041244;23;20173;-88
2022/12/27 10:37:26;;;;;;;10.43;4.73;;;;;;;17.96;44.63;99592.59;6041287;23;20140;-87
2022/12/27 10:39:51;;;;;;;8.40;3.97;;;;;;;18.12;44.99;99599.28;6015955;23;20256;-88
2022/12/27 10:42:23;;;;;;;15.73;5.50;;;;;;;18.42;45.13;99593.44;6041143;23;20509;-88
2022/12/27 10:44:48;;;;;;;12.57;4.80;;;;;;;18.71;43.38;99581.41;6040781;23;20143;-88
2022/12/27 10:47:15;;;;;;;8.97;4.30;;;;;;;18.85;43.16;99588.28;6041147;23;20575;-87
2022/12/27 10:49:43;;;;;;;10.40;4.10;;;;;;;18.88;42.92;99583.59;6015904;23;20500;-88
2022/12/27 10:52:17;;;;;;;9.47;4.80;;;;;;;19.01;42.91;99578.97;6040583;23;20193;-88
2022/12/27 10:54:53;;;;;;;10.73;5.00;;;;;;;19.02;42.89;99579.84;6040983;23;20586;-88
2022/12/27 10:57:34;;;;;;;11.90;4.47;;;;;;;19.23;42.84;99579.91;6041075;23;20207;-88
2022/12/27 11:00:28;;;;;;;11.63;6.33;;;;;;;19.37;42.54;99575.19;6040575;23;20138;-89
2022/12/27 11:03:02;;;;;;;12.87;5.40;;;;;;;19.56;42.36;99566.53;6016634;23;20170;-88
2022/12/27 11:05:32;;;;;;;13.30;6.63;;;;;;;19.74;42.34;99564.16;6039326;23;20516;-88
2022/12/27 11:07:58;;;;;;;14.00;6.93;;;;;;;19.82;41.60;99553.72;6015767;23;20150;-88
2022/12/27 11:10:27;;;;;;;12.47;7.20;;;;;;;19.91;40.77;99547.66;6015144;23;20178;-88
2022/12/27 11:12:56;;;;;;;18.30;8.37;;;;;;;20.08;41.13;99547.91;6040820;23;20205;-87
2022/12/27 11:15:23;;;;;;;15.13;7.03;;;;;;;20.35;39.97;99535.91;6015603;23;20172;-88
2022/12/27 11:18:19;;;;;;;17.60;8.13;;;;;;;20.33;39.64;99543.19;6015450;23;20165;-89
2022/12/27 11:20:51;;;;;;;18.43;8.53;;;;;;;20.52;39.63;99543.28;6031284;23;20632;-88
2022/12/27 11:23:20;;;;;;;12.73;7.60;;;;;;;20.55;38.98;99535.84;6040515;23;20186;-88
2022/12/27 11:25:51;;;;;;;15.80;7.60;;;;;;;20.55;39.15;99535.00;6037742;23;20492;-88
2022/12/27 11:28:27;;;;;;;10.23;5.60;;;;;;;20.75;39.11;99529.63;6039911;23;20202;-89
2022/12/27 11:31:00;;;;;;;7.90;3.80;;;;;;;20.90;38.34;99531.91;6039857;23;20559;-89
2022/12/27 11:33:52;;;;;;;12.60;6.43;;;;;;;20.89;38.29;99532.88;6038237;23;20147;-89
2022/12/27 11:36:28;;;;;;;11.30;5.53;;;;;;;20.82;38.99;99533.44;6006171;23;20162;-89
2022/12/27 11:38:54;;;;;;;14.93;7.37;;;;;;;20.94;38.45;99523.50;6016126;23;20153;-89
2022/12/27 11:41:30;;;;;;;13.37;6.53;;;;;;;21.13;38.07;99523.59;6015051;23;20204;-90
2022/12/27 11:44:35;;;;;;;6.60;2.70;;;;;;;21.34;37.41;99521.66;6040018;23;20145;-89
2022/12/27 11:47:10;;;;;;;4.70;1.53;;;;;;;21.32;36.43;99520.09;6040001;23;20213;-88
2022/12/27 11:49:56;;;;;;;4.57;1.67;;;;;;;21.31;37.13;99511.25;6039920;23;20582;-88
2022/12/27 11:52:33;;;;;;;4.10;1.70;;;;;;;21.19;36.74;99517.72;6015049;23;20630;-88
2022/12/27 11:55:41;;;;;;;3.53;1.67;;;;;;;20.99;36.95;99518.59;6040006;23;20208;-87
2022/12/27 11:58:15;;;;;;;4.77;2.23;;;;;;;21.28;36.95;99516.88;6015031;23;20522;-88
2022/12/27 12:01:18;;;;;;;6.27;2.17;;;;;;;21.34;36.64;99516.31;6015325;23;20459;-88
2022/12/27 12:03:51;;;;;;;4.63;2.07;;;;;;;21.44;36.78;99510.97;6040104;23;20658;-88
2022/12/27 12:06:28;;;;;;;5.33;1.97;;;;;;;21.65;36.70;99505.50;6015227;23;20221;-88
2022/12/27 12:09:14;;;;;;;4.30;1.83;;;;;;;21.80;36.20;99502.25;6040646;23;20148;-88
2022/12/27 12:11:58;;;;;;;3.90;1.60;;;;;;;21.38;36.54;99496.38;6040393;23;20241;-87
2022/12/27 12:14:32;;;;;;;5.00;2.07;;;;;;;21.63;36.07;99496.78;6040256;23;20214;-88
2022/12/27 12:17:24;;;;;;;4.43;1.87;;;;;;;21.69;35.93;99499.75;6040349;23;20182;-87
2022/12/27 12:20:32;;;;;;;6.93;1.80;;;;;;;21.49;36.29;99502.56;5987363;23;20158;-88
2022/12/27 12:23:11;;;;;;;3.97;1.63;;;;;;;21.38;35.94;99499.03;6040040;23;20138;-88
2022/12/27 12:26:03;;;;;;;2.70;1.50;;;;;;;21.59;36.19;99500.75;6037840;23;20230;-87
2022/12/27 12:28:56;;;;;;;6.40;1.87;;;;;;;21.63;35.63;99502.13;6038451;23;20146;-87
2022/12/27 12:31:48;;;;;;;4.20;2.03;;;;;;;21.25;36.35;99503.00;6038648;23;20169;-87
2022/12/27 12:34:53;;;;;;;4.23;2.47;;;;;;;21.06;36.45;99500.25;6013910;23;20154;-87
2022/12/27 12:37:52;;;;;;;7.47;2.03;;;;;;;21.16;36.25;99504.66;6038914;23;20260;-87
2022/12/27 12:40:44;;;;;;;3.80;1.63;;;;;;;21.48;36.39;99495.56;6039048;23;20586;-87
2022/12/27 12:43:51;;;;;;;4.17;2.00;;;;;;;21.25;36.21;99501.13;6038729;23;20138;-87
2022/12/27 12:46:38;;;;;;;3.43;1.20;;;;;;;20.79;36.58;99503.56;6039555;23;20164;-86
2022/12/27 12:49:33;;;;;;;3.23;1.60;;;;;;;20.79;36.72;99504.41;6038741;23;20146;-87
2022/12/27 12:52:24;;;;;;;9.73;2.37;;;;;;;20.82;36.52;99501.47;6039398;23;20198;-87
2022/12/27 12:55:23;;;;;;;4.93;1.80;;;;;;;20.58;36.48;99508.97;6038426;23;20242;-88
2022/12/27 12:58:12;;;;;;;3.20;1.63;;;;;;;20.81;36.43;99513.09;6038336;23;20150;-87
2022/12/27 13:00:59;;;;;;;3.13;1.30;;;;;;;20.85;36.85;99513.69;6027911;23;20161;-87
2022/12/27 13:03:33;;;;;;;5.63;1.93;;;;;;;20.82;36.43;99506.81;6039139;23;20522;-87
2022/12/27 13:06:29;;;;;;;9.90;2.77;;;;;;;20.96;36.54;99502.91;6039341;23;20229;-87
2022/12/27 13:09:13;;;;;;;12.03;3.80;;;;;;;20.87;36.07;99509.06;6038926;23;20148;-87
2022/12/27 13:11:57;;;;;;;7.50;3.03;;;;;;;20.64;36.48;99516.41;6039520;23;20166;-87
2022/12/27 13:14:44;;;;;;;8.87;3.70;;;;;;;20.87;36.22;99503.72;6014275;23;20154;-87
2022/12/27 13:17:45;;;;;;;7.87;2.63;;;;;;;20.94;36.26;99512.03;6039120;23;20148;-87
2022/12/27 13:20:50;;;;;;;5.47;2.23;;;;;;;20.95;36.38;99509.22;6039507;23;20137;-87
2022/12/27 13:23:34;;;;;;;6.20;2.13;;;;;;;20.93;36.38;99513.84;6038875;23;20150;-87
2022/12/27 13:25:59;;;;;;;3.63;1.60;;;;;;;20.79;36.24;99519.53;6039131;23;20138;-87
2022/12/27 13:28:42;;;;;;;8.27;3.10;;;;;;;20.92;36.14;99519.28;6013984;23;20241;-88
2022/12/27 13:31:43;;;;;;;6.03;2.80;;;;;;;21.01;36.20;99518.47;6013927;23;20161;-88
2022/12/27 13:34:41;;;;;;;7.73;2.70;;;;;;;20.75;36.32;99518.13;6038375;23;20140;-88
2022/12/27 13:37:10;;;;;;;3.33;1.47;;;;;;;20.77;36.16;99511.69;6039954;23;20144;-87
2022/12/27 13:40:07;;;;;;;3.63;1.90;;;;;;;20.58;36.49;99506.28;6039657;23;20149;-87